createdAt,value
2024-03-11T00:00:19.511Z,10.40
2024-03-11T00:02:46.844Z,10.30
2024-03-11T00:05:14.858Z,10.20
2024-03-11T00:07:42.794Z,10.20
2024-03-11T00:10:13.804Z,10.20
2024-03-11T00:12:50.527Z,10.20
2024-03-11T00:15:21.511Z,10.20
2024-03-11T00:17:48.841Z,10.20
2024-03-11T00:20:15.765Z,10.10
2024-03-11T00:22:42.644Z,10.20
2024-03-11T00:25:10.636Z,10.30
2024-03-11T00:27:37.853Z,10.20
2024-03-11T00:30:07.673Z,10.20
2024-03-11T00:32:34.422Z,10.10
2024-03-11T00:35:02.232Z,10.10
2024-03-11T00:37:28.959Z,10.10
2024-03-11T00:39:55.764Z,10.10
2024-03-11T00:42:23.617Z,10.10
2024-03-11T00:44:51.600Z,10.10
2024-03-11T00:47:24.909Z,10.10
2024-03-11T00:49:51.741Z,10.20
2024-03-11T00:52:18.452Z,10.10
2024-03-11T00:54:45.655Z,10.10
2024-03-11T00:57:12.956Z,10.10
2024-03-11T00:59:43.261Z,10.10
2024-03-11T01:02:12.258Z,10.10
2024-03-11T01:04:38.978Z,10.10
2024-03-11T01:07:13.285Z,10.00
2024-03-11T01:09:47.696Z,10.00
2024-03-11T01:12:14.874Z,9.90
2024-03-11T01:14:41.611Z,9.80
2024-03-11T01:17:08.374Z,9.70
2024-03-11T01:19:35.080Z,9.70
2024-03-11T01:22:01.917Z,9.80
2024-03-11T01:24:29.555Z,9.80
2024-03-11T01:26:59.507Z,9.80
2024-03-11T01:29:26.513Z,9.70
2024-03-11T01:31:53.568Z,9.70
2024-03-11T01:34:22.731Z,9.70
2024-03-11T01:36:50.167Z,9.70
2024-03-11T01:39:26.549Z,9.60
2024-03-11T01:41:56.332Z,9.50
2024-03-11T01:44:23.091Z,9.50
2024-03-11T01:46:53.741Z,9.40
2024-03-11T01:49:22.295Z,9.30
2024-03-11T01:51:50.455Z,9.40
2024-03-11T01:54:17.427Z,9.40
2024-03-11T01:56:45.041Z,9.40
2024-03-11T01:59:12.451Z,9.50
2024-03-11T02:01:40.237Z,9.40
2024-03-11T02:04:07.130Z,9.40
2024-03-11T02:06:34.218Z,9.40
2024-03-11T02:09:01.492Z,9.40
2024-03-11T02:11:28.465Z,9.40
2024-03-11T02:13:55.278Z,9.30
2024-03-11T02:16:24.024Z,9.30
2024-03-11T02:18:52.921Z,9.20
2024-03-11T02:21:19.758Z,9.30
2024-03-11T02:23:46.598Z,9.20
2024-03-11T02:26:13.490Z,9.30
2024-03-11T02:28:40.314Z,9.20
2024-03-11T02:31:08.330Z,9.30
2024-03-11T02:33:35.109Z,9.30
2024-03-11T02:36:02.432Z,9.30
2024-03-11T02:38:29.209Z,9.30
2024-03-11T02:40:56.218Z,9.30
2024-03-11T02:43:23.176Z,9.10
2024-03-11T02:45:49.918Z,9.30
2024-03-11T02:48:16.708Z,9.40
2024-03-11T02:50:43.995Z,9.30
2024-03-11T02:53:10.778Z,9.20
2024-03-11T02:55:40.146Z,9.20
2024-03-11T02:58:07.353Z,9.20
2024-03-11T03:00:35.015Z,9.20
2024-03-11T03:03:01.884Z,9.20
2024-03-11T03:05:28.791Z,9.30
2024-03-11T03:07:55.541Z,9.30
2024-03-11T03:10:22.211Z,9.40
2024-03-11T03:12:49.040Z,9.40
2024-03-11T03:15:18.028Z,9.40
2024-03-11T03:17:44.952Z,9.40
2024-03-11T03:20:12.663Z,9.30
2024-03-11T03:22:39.784Z,9.30
2024-03-11T03:25:07.577Z,9.30
2024-03-11T03:27:34.474Z,9.30
2024-03-11T03:30:01.246Z,9.30
2024-03-11T03:32:28.748Z,9.30
2024-03-11T03:34:55.714Z,9.30
2024-03-11T03:37:23.352Z,9.20
2024-03-11T03:39:50.087Z,9.20
2024-03-11T03:42:16.773Z,9.30
2024-03-11T03:44:43.797Z,9.30
2024-03-11T03:47:11.049Z,9.30
2024-03-11T03:49:37.916Z,9.40
2024-03-11T03:52:06.357Z,9.30
2024-03-11T03:54:33.330Z,9.30
2024-03-11T03:57:00.090Z,9.30
2024-03-11T03:59:29.289Z,9.20
2024-03-11T04:01:56.586Z,9.30
2024-03-11T04:04:23.338Z,9.30
2024-03-11T04:06:50.063Z,9.30
2024-03-11T04:09:17.040Z,9.30
2024-03-11T04:11:43.877Z,9.20
2024-03-11T04:14:12.020Z,9.20
2024-03-11T04:16:38.857Z,9.20
2024-03-11T04:19:06.758Z,9.20
2024-03-11T04:21:34.342Z,9.10
2024-03-11T04:24:01.653Z,9.20
2024-03-11T04:26:30.812Z,9.20
2024-03-11T04:28:57.665Z,9.20
2024-03-11T04:31:25.196Z,9.20
2024-03-11T04:33:52.116Z,9.20
2024-03-11T04:36:20.073Z,9.20
2024-03-11T04:38:46.853Z,9.10
2024-03-11T04:41:13.669Z,9.10
2024-03-11T04:43:40.415Z,9.10
2024-03-11T04:46:10.850Z,9.10
2024-03-11T04:48:37.673Z,9.20
2024-03-11T04:51:06.025Z,9.20
2024-03-11T04:53:32.905Z,9.20
2024-03-11T04:55:59.885Z,9.10
2024-03-11T04:58:26.581Z,9.20
2024-03-11T05:00:53.382Z,9.10
2024-03-11T05:03:20.103Z,9.10
2024-03-11T05:05:47.542Z,9.10
2024-03-11T05:08:14.836Z,9.10
2024-03-11T05:10:42.155Z,9.10
2024-03-11T05:13:09.256Z,9.20
2024-03-11T05:15:36.027Z,9.10
2024-03-11T05:18:04.575Z,9.20
2024-03-11T05:20:31.497Z,9.30
2024-03-11T05:22:58.266Z,9.30
2024-03-11T05:25:25.376Z,9.30
2024-03-11T05:27:52.875Z,9.20
2024-03-11T05:30:20.210Z,9.30
2024-03-11T05:32:47.952Z,9.30
2024-03-11T05:35:15.895Z,9.20
2024-03-11T05:37:43.303Z,9.30
2024-03-11T05:40:13.234Z,9.20
2024-03-11T05:42:43.691Z,9.20
2024-03-11T05:45:14.164Z,9.20
2024-03-11T05:47:42.969Z,9.20
2024-03-11T05:50:10.555Z,9.10
2024-03-11T05:52:38.567Z,9.10
2024-03-11T05:55:12.841Z,9.20
2024-03-11T05:57:44.848Z,9.10
2024-03-11T06:00:16.555Z,9.10
2024-03-11T06:02:45.157Z,9.10
2024-03-11T06:05:12.299Z,9.20
2024-03-11T06:07:39.166Z,9.20
2024-03-11T06:10:09.104Z,9.30
2024-03-11T06:12:36.116Z,9.20
2024-03-11T06:15:03.038Z,9.20
2024-03-11T06:17:30.994Z,9.30
2024-03-11T06:19:58.891Z,9.20
2024-03-11T06:22:28.445Z,9.20
2024-03-11T06:24:55.803Z,9.20
2024-03-11T06:27:22.617Z,9.20
2024-03-11T06:29:50.631Z,9.20
2024-03-11T06:32:18.346Z,9.10
2024-03-11T06:34:45.123Z,8.90
2024-03-11T06:37:12.198Z,9.00
2024-03-11T06:39:40.728Z,9.00
2024-03-11T06:42:07.763Z,9.00
2024-03-11T06:44:40.636Z,9.10
2024-03-11T06:47:15.895Z,9.00
2024-03-11T06:49:42.709Z,9.00
2024-03-11T06:52:10.288Z,8.90
2024-03-11T06:54:37.736Z,8.80
2024-03-11T06:57:07.114Z,8.80
2024-03-11T06:59:34.604Z,8.80
2024-03-11T07:02:01.400Z,8.90
2024-03-11T07:04:28.153Z,8.90
2024-03-11T07:06:54.912Z,8.80
2024-03-11T07:09:21.630Z,8.90
2024-03-11T07:11:48.464Z,8.80
2024-03-11T07:14:16.064Z,8.90
2024-03-11T07:16:44.621Z,8.90
2024-03-11T07:19:11.902Z,8.90
2024-03-11T07:21:40.066Z,8.80
2024-03-11T07:24:07.493Z,8.70
2024-03-11T07:26:34.331Z,8.70
2024-03-11T07:29:01.562Z,8.80
2024-03-11T07:31:28.353Z,8.80
2024-03-11T07:33:55.457Z,8.80
2024-03-11T07:36:22.869Z,8.80
2024-03-11T07:38:49.832Z,8.70
2024-03-11T07:41:16.701Z,8.80
2024-03-11T07:43:43.508Z,8.80
2024-03-11T07:46:12.445Z,8.70
2024-03-11T07:48:40.451Z,8.70
2024-03-11T07:51:09.026Z,8.50
2024-03-11T07:53:36.734Z,8.40
2024-03-11T07:56:05.516Z,8.40
2024-03-11T07:58:35.855Z,8.50
2024-03-11T08:01:03.427Z,8.50
2024-03-11T08:03:30.815Z,8.50
2024-03-11T08:05:57.625Z,8.40
2024-03-11T08:08:25.642Z,8.50
2024-03-11T08:10:52.497Z,8.50
2024-03-11T08:13:19.868Z,8.50
2024-03-11T08:15:46.769Z,8.50
2024-03-11T08:18:14.597Z,8.50
2024-03-11T08:20:41.676Z,8.50
2024-03-11T08:23:09.315Z,8.40
2024-03-11T08:25:36.742Z,8.40
2024-03-11T08:28:03.780Z,8.50
2024-03-11T08:30:32.050Z,8.50
2024-03-11T08:32:59.334Z,8.50
2024-03-11T08:35:26.556Z,8.60
2024-03-11T08:37:53.752Z,8.60
2024-03-11T08:40:22.982Z,8.60
2024-03-11T08:42:51.337Z,8.60
2024-03-11T08:45:24.181Z,8.70
2024-03-11T08:47:52.049Z,8.70
2024-03-11T08:50:19.026Z,8.60
2024-03-11T08:52:49.701Z,8.50
2024-03-11T08:55:17.576Z,8.60
2024-03-11T08:57:46.667Z,8.50
2024-03-11T09:00:16.933Z,8.50
2024-03-11T09:02:45.851Z,8.40
2024-03-11T09:05:19.862Z,8.50
2024-03-11T09:07:48.016Z,8.50
2024-03-11T09:10:15.902Z,8.50
2024-03-11T09:12:43.686Z,8.50
2024-03-11T09:15:17.773Z,8.40
2024-03-11T09:17:49.506Z,8.30
2024-03-11T09:20:16.882Z,8.20
2024-03-11T09:22:47.075Z,8.20
2024-03-11T09:25:25.836Z,8.30
2024-03-11T09:28:02.652Z,8.30
2024-03-11T09:30:32.696Z,8.30
2024-03-11T09:32:59.766Z,8.30
2024-03-11T09:35:26.561Z,8.30
2024-03-11T09:37:53.461Z,8.40
2024-03-11T09:40:25.513Z,8.40
2024-03-11T09:42:56.695Z,8.30
2024-03-11T09:45:27.370Z,8.30
2024-03-11T09:47:58.636Z,8.30
2024-03-11T09:50:35.197Z,8.30
2024-03-11T09:53:05.434Z,8.20
2024-03-11T09:55:33.065Z,8.10
2024-03-11T09:58:13.693Z,8.20
2024-03-11T10:00:50.450Z,8.10
2024-03-11T10:03:23.728Z,8.20
2024-03-11T10:06:01.096Z,8.10
2024-03-11T10:08:31.074Z,8.20
2024-03-11T10:11:14.182Z,8.10
2024-03-11T10:13:42.104Z,8.20
2024-03-11T10:16:20.142Z,8.20
2024-03-11T10:18:54.071Z,8.20
2024-03-11T10:21:21.194Z,8.20
2024-03-11T10:23:51.818Z,8.10
2024-03-11T10:26:19.021Z,8.10
2024-03-11T10:28:50.674Z,8.10
2024-03-11T10:31:25.322Z,8.10
2024-03-11T10:33:57.597Z,8.10
2024-03-11T10:36:26.419Z,8.10
2024-03-11T10:38:58.631Z,8.10
2024-03-11T10:41:26.291Z,8.10
2024-03-11T10:43:56.220Z,8.20
2024-03-11T10:46:25.840Z,8.20
2024-03-11T10:48:53.092Z,8.20
2024-03-11T10:51:22.713Z,8.10
2024-03-11T10:53:54.791Z,8.10
2024-03-11T10:56:27.174Z,8.00
2024-03-11T10:58:57.458Z,8.00
2024-03-11T11:01:34.529Z,8.00
2024-03-11T11:04:14.791Z,8.10
2024-03-11T11:06:46.048Z,8.20
2024-03-11T11:09:14.059Z,8.20
2024-03-11T11:11:52.314Z,8.20
2024-03-11T11:14:19.697Z,8.20
2024-03-11T11:16:46.879Z,8.30
2024-03-11T11:19:15.515Z,8.40
2024-03-11T11:21:44.657Z,8.40
2024-03-11T11:24:34.091Z,8.50
2024-03-11T11:27:07.069Z,8.50
2024-03-11T11:29:34.421Z,8.50
2024-03-11T11:32:04.299Z,8.40
2024-03-11T11:34:46.026Z,8.40
2024-03-11T11:37:23.331Z,8.50
2024-03-11T11:39:55.642Z,8.50
2024-03-11T11:42:36.690Z,8.50
2024-03-11T11:45:07.464Z,8.50
2024-03-11T11:47:34.875Z,8.50
2024-03-11T11:50:02.430Z,8.50
2024-03-11T11:52:30.223Z,8.50
2024-03-11T11:54:57.545Z,8.50
2024-03-11T11:57:25.976Z,8.50
2024-03-11T11:59:56.585Z,8.60
2024-03-11T12:02:29.247Z,8.50
2024-03-11T12:04:58.325Z,8.50
2024-03-11T12:07:26.403Z,8.60
2024-03-11T12:09:55.869Z,8.50
2024-03-11T12:12:31.264Z,8.50
2024-03-11T12:15:01.611Z,8.50
2024-03-11T12:17:31.018Z,8.50
2024-03-11T12:20:25.353Z,8.50
2024-03-11T12:22:53.545Z,8.40
2024-03-11T12:25:20.371Z,8.30
2024-03-11T12:27:59.950Z,8.40
2024-03-11T12:30:39.522Z,8.20
2024-03-11T12:33:09.886Z,8.20
2024-03-11T12:35:39.180Z,8.30
2024-03-11T12:38:08.355Z,8.50
2024-03-11T12:40:54.160Z,8.50
2024-03-11T12:43:31.036Z,8.60
2024-03-11T12:46:04.309Z,8.60
2024-03-11T12:48:32.737Z,8.60
2024-03-11T12:51:01.889Z,8.60
2024-03-11T12:53:30.678Z,8.60
2024-03-11T12:56:14.088Z,8.60
2024-03-11T12:58:41.390Z,8.60
2024-03-11T13:01:17.433Z,8.60
2024-03-11T13:03:47.597Z,8.50
2024-03-11T13:06:19.520Z,8.50
2024-03-11T13:08:46.652Z,8.50
2024-03-11T13:11:17.490Z,8.50
2024-03-11T13:13:44.570Z,8.50
2024-03-11T13:16:18.063Z,8.50
2024-03-11T13:18:48.792Z,8.50
2024-03-11T13:21:20.381Z,8.60
2024-03-11T13:23:48.886Z,8.70
2024-03-11T13:26:17.237Z,8.80
2024-03-11T13:28:44.463Z,8.80
2024-03-11T13:31:13.891Z,8.80
2024-03-11T13:33:45.674Z,8.80
2024-03-11T13:36:14.031Z,8.90
2024-03-11T13:38:42.184Z,8.80
2024-03-11T13:41:09.678Z,8.80
2024-03-11T13:43:40.282Z,8.80
2024-03-11T13:46:07.149Z,8.80
2024-03-11T13:48:33.907Z,8.70
2024-03-11T13:51:00.728Z,8.80
2024-03-11T13:53:29.627Z,8.80
2024-03-11T13:55:57.081Z,8.60
2024-03-11T13:58:25.549Z,8.70
2024-03-11T14:00:53.150Z,9.10
2024-03-11T14:03:20.618Z,11.50
2024-03-11T14:05:47.821Z,13.90
2024-03-11T14:08:14.877Z,12.70
2024-03-11T14:10:43.918Z,11.90
2024-03-11T14:13:10.781Z,11.10
2024-03-11T14:15:37.862Z,10.50
2024-03-11T14:18:06.954Z,10.20
2024-03-11T14:20:34.012Z,10.00
2024-03-11T14:23:01.773Z,9.90
2024-03-11T14:25:32.443Z,9.60
2024-03-11T14:28:00.226Z,9.60
2024-03-11T14:30:35.639Z,9.60
2024-03-11T14:33:08.414Z,9.50
2024-03-11T14:35:36.823Z,9.50
2024-03-11T14:38:03.620Z,9.40
2024-03-11T14:40:30.708Z,9.40
2024-03-11T14:43:01.978Z,9.40
2024-03-11T14:45:33.475Z,9.30
2024-03-11T14:48:02.518Z,9.40
2024-03-11T14:50:30.706Z,9.30
2024-03-11T14:52:58.553Z,9.40
2024-03-11T14:55:37.935Z,9.40
2024-03-11T14:58:09.218Z,9.40
2024-03-11T15:00:50.310Z,9.40
2024-03-11T15:03:19.158Z,9.40
2024-03-11T15:05:46.814Z,9.40
2024-03-11T15:08:15.184Z,9.40
2024-03-11T15:10:43.964Z,9.30
2024-03-11T15:13:12.256Z,9.30
2024-03-11T15:15:42.368Z,9.30
2024-03-11T15:18:15.958Z,9.30
2024-03-11T15:20:49.940Z,9.30
2024-03-11T15:23:25.451Z,9.30
2024-03-11T15:26:00.130Z,9.20
2024-03-11T15:28:27.560Z,9.30
2024-03-11T15:30:55.972Z,9.20
2024-03-11T15:33:24.366Z,9.20
2024-03-11T15:35:52.053Z,9.20
2024-03-11T15:38:23.194Z,9.30
2024-03-11T15:40:51.079Z,9.30
2024-03-11T15:43:18.433Z,9.40
2024-03-11T15:45:46.983Z,10.00
2024-03-11T15:48:14.871Z,9.80
2024-03-11T15:50:42.102Z,9.70
2024-03-11T15:53:14.280Z,9.60
2024-03-11T15:55:41.372Z,9.60
2024-03-11T15:58:08.621Z,9.60
2024-03-11T16:00:37.154Z,9.60
2024-03-11T16:03:10.027Z,9.60
2024-03-11T16:05:41.051Z,10.30
2024-03-11T16:08:15.278Z,13.50
2024-03-11T16:10:43.937Z,15.40
2024-03-11T16:13:14.152Z,15.00
2024-03-11T16:15:41.050Z,13.70
2024-03-11T16:18:08.600Z,12.50
2024-03-11T16:20:35.512Z,11.70
2024-03-11T16:23:02.198Z,11.20
2024-03-11T16:25:30.626Z,10.80
2024-03-11T16:27:59.945Z,10.50
2024-03-11T16:30:27.378Z,10.40
2024-03-11T16:32:56.820Z,10.10
2024-03-11T16:35:26.535Z,10.00
2024-03-11T16:37:54.695Z,9.80
2024-03-11T16:40:29.127Z,9.70
2024-03-11T16:43:10.436Z,9.60
2024-03-11T16:45:38.418Z,9.60
2024-03-11T16:48:07.070Z,9.60
2024-03-11T16:50:34.063Z,9.60
2024-03-11T16:53:07.199Z,9.60
2024-03-11T16:55:34.119Z,9.50
2024-03-11T16:58:02.097Z,9.50
2024-03-11T17:00:34.984Z,9.50
2024-03-11T17:03:02.565Z,9.40
2024-03-11T17:05:31.536Z,9.50
2024-03-11T17:07:59.225Z,9.40
2024-03-11T17:10:28.795Z,9.30
2024-03-11T17:12:57.081Z,9.30
2024-03-11T17:15:31.446Z,9.30
2024-03-11T17:18:00.678Z,9.30
2024-03-11T17:20:39.425Z,9.30
2024-03-11T17:23:09.177Z,9.30
2024-03-11T17:25:37.559Z,9.20
2024-03-11T17:28:07.436Z,9.10
2024-03-11T17:30:35.530Z,9.20
2024-03-11T17:33:15.084Z,9.10
2024-03-11T17:35:46.389Z,9.10
2024-03-11T17:38:14.206Z,9.10
2024-03-11T17:40:43.153Z,9.10
2024-03-11T17:43:10.617Z,9.10
2024-03-11T17:45:40.400Z,9.10
2024-03-11T17:48:08.997Z,9.10
2024-03-11T17:50:36.836Z,9.10
2024-03-11T17:53:04.607Z,9.20
2024-03-11T17:55:32.214Z,9.20
2024-03-11T17:58:01.424Z,9.20
2024-03-11T18:00:29.478Z,9.20
2024-03-11T18:02:58.450Z,9.30
2024-03-11T18:05:27.404Z,9.20
2024-03-11T18:07:55.220Z,9.20
2024-03-11T18:10:26.966Z,9.20
2024-03-11T18:12:57.577Z,9.10
2024-03-11T18:15:25.325Z,9.10
2024-03-11T18:17:54.056Z,9.00
2024-03-11T18:20:24.647Z,9.00
2024-03-11T18:22:54.827Z,9.00
2024-03-11T18:25:26.168Z,8.90
2024-03-11T18:28:02.824Z,8.90
2024-03-11T18:30:29.844Z,8.90
2024-03-11T18:32:57.836Z,8.90
2024-03-11T18:35:26.700Z,8.90
2024-03-11T18:38:00.456Z,8.90
2024-03-11T18:40:27.411Z,9.00
2024-03-11T18:42:55.165Z,9.10
2024-03-11T18:45:27.270Z,9.10
2024-03-11T18:47:56.119Z,9.10
2024-03-11T18:50:25.125Z,9.00
2024-03-11T18:52:59.568Z,9.10
2024-03-11T18:55:30.666Z,9.00
2024-03-11T18:57:58.646Z,9.10
2024-03-11T19:00:29.541Z,9.10
2024-03-11T19:02:58.084Z,9.10
2024-03-11T19:05:25.475Z,9.10
2024-03-11T19:07:52.491Z,9.00
2024-03-11T19:10:23.286Z,9.10
2024-03-11T19:12:52.069Z,9.10
2024-03-11T19:15:21.186Z,9.10
2024-03-11T19:17:48.922Z,9.00
2024-03-11T19:20:17.918Z,9.00
2024-03-11T19:22:46.679Z,9.10
2024-03-11T19:25:19.682Z,9.20
2024-03-11T19:27:47.447Z,9.30
2024-03-11T19:30:14.818Z,9.30
2024-03-11T19:32:43.003Z,9.30
2024-03-11T19:35:17.588Z,9.30
2024-03-11T19:38:27.049Z,9.30
2024-03-11T19:41:13.583Z,9.30
2024-03-11T19:43:46.220Z,9.30
2024-03-11T19:46:29.779Z,9.20
2024-03-11T19:49:37.031Z,9.20
2024-03-11T19:52:55.869Z,9.20
2024-03-11T19:55:56.686Z,9.20
2024-03-11T19:59:14.463Z,9.10
2024-03-11T20:02:04.862Z,9.20
2024-03-11T20:04:44.000Z,9.20
2024-03-11T20:07:55.264Z,9.10
2024-03-11T20:10:41.828Z,9.00
2024-03-11T20:13:32.359Z,8.90
2024-03-11T20:16:20.436Z,9.00
2024-03-11T20:19:18.471Z,9.10
2024-03-11T20:22:11.385Z,9.10
2024-03-11T20:25:13.955Z,9.00
2024-03-11T20:28:02.105Z,9.00
2024-03-11T20:30:42.098Z,8.90
2024-03-11T20:33:10.495Z,10.40
2024-03-11T20:35:38.665Z,10.00
2024-03-11T20:38:05.451Z,9.80
2024-03-11T20:40:34.195Z,9.70
2024-03-11T20:43:01.248Z,9.50
2024-03-11T20:45:28.347Z,9.50
2024-03-11T20:47:55.522Z,9.40
2024-03-11T20:50:22.364Z,9.30
2024-03-11T20:52:49.659Z,9.40
2024-03-11T20:55:16.619Z,9.30
2024-03-11T20:57:44.302Z,9.20
2024-03-11T21:00:17.591Z,9.20
2024-03-11T21:02:46.800Z,9.10
2024-03-11T21:05:16.726Z,9.00
2024-03-11T21:07:43.644Z,9.10
2024-03-11T21:10:11.003Z,9.10
2024-03-11T21:12:37.951Z,9.20
2024-03-11T21:15:12.746Z,9.10
2024-03-11T21:17:42.626Z,9.10
2024-03-11T21:20:24.353Z,9.20
2024-03-11T21:22:53.625Z,9.20
2024-03-11T21:25:28.130Z,9.20
2024-03-11T21:27:56.623Z,9.30
2024-03-11T21:30:24.905Z,9.30
2024-03-11T21:32:52.221Z,9.30
2024-03-11T21:35:20.736Z,9.20
2024-03-11T21:37:47.985Z,9.30
2024-03-11T21:40:15.541Z,9.20
2024-03-11T21:42:45.182Z,9.20
2024-03-11T21:45:11.947Z,9.10
2024-03-11T21:47:38.981Z,9.20
2024-03-11T21:50:06.508Z,9.10
2024-03-11T21:52:33.936Z,9.00
2024-03-11T21:55:01.499Z,9.10
2024-03-11T21:57:29.000Z,9.10
2024-03-11T21:59:57.813Z,9.10
2024-03-11T22:02:25.945Z,9.10
2024-03-11T22:04:56.515Z,9.10
2024-03-11T22:07:25.684Z,9.10
2024-03-11T22:09:56.962Z,9.20
2024-03-11T22:12:23.949Z,9.20
2024-03-11T22:14:50.794Z,9.20
2024-03-11T22:17:17.804Z,9.20
2024-03-11T22:19:45.609Z,9.30
2024-03-11T22:22:12.908Z,9.20
2024-03-11T22:24:42.820Z,9.20
2024-03-11T22:27:11.443Z,9.30
2024-03-11T22:29:38.172Z,9.30
2024-03-11T22:32:08.145Z,9.30
2024-03-11T22:34:34.829Z,9.20
2024-03-11T22:37:01.985Z,9.20
2024-03-11T22:39:29.183Z,9.20
2024-03-11T22:42:12.632Z,9.20
2024-03-11T22:44:40.247Z,9.20
2024-03-11T22:47:10.120Z,9.10
2024-03-11T22:49:40.402Z,9.10
2024-03-11T22:52:08.028Z,9.20
2024-03-11T22:54:34.989Z,9.10
2024-03-11T22:57:10.414Z,9.20
2024-03-11T22:59:39.464Z,9.10
2024-03-11T23:02:09.342Z,9.10
2024-03-11T23:04:36.102Z,9.10
2024-03-11T23:07:03.282Z,9.00
2024-03-11T23:09:30.405Z,9.00
2024-03-11T23:11:57.271Z,9.00
2024-03-11T23:14:26.351Z,9.00
2024-03-11T23:16:53.106Z,9.00
2024-03-11T23:19:19.797Z,8.90
2024-03-11T23:21:47.829Z,8.90
2024-03-11T23:24:15.243Z,8.90
2024-03-11T23:26:41.953Z,9.00
2024-03-11T23:29:11.403Z,9.00
2024-03-11T23:31:38.108Z,8.90
2024-03-11T23:34:04.992Z,8.90
2024-03-11T23:36:31.871Z,8.90
2024-03-11T23:38:59.235Z,8.80
2024-03-11T23:41:28.011Z,8.80
2024-03-11T23:43:55.336Z,8.80
2024-03-11T23:46:22.690Z,8.80
2024-03-11T23:48:49.537Z,8.80
2024-03-11T23:51:17.116Z,8.80
2024-03-11T23:53:46.970Z,8.80
2024-03-11T23:56:15.781Z,8.80
2024-03-11T23:58:42.953Z,8.80
